createdAt,value
2018-04-12T00:00:57.192Z,93.11
2018-04-12T00:02:01.901Z,93.10
2018-04-12T00:03:06.865Z,93.12
2018-04-12T00:04:11.506Z,93.09
2018-04-12T00:05:16.158Z,93.04
2018-04-12T00:06:20.703Z,92.99
2018-04-12T00:07:25.253Z,92.98
2018-04-12T00:08:29.886Z,93.02
2018-04-12T00:09:34.899Z,93.04
2018-04-12T00:10:39.473Z,93.09
2018-04-12T00:11:44.112Z,93.17
2018-04-12T00:12:48.709Z,93.10
2018-04-12T00:13:53.324Z,93.11
2018-04-12T00:14:57.990Z,93.18
2018-04-12T00:16:03.078Z,93.22
2018-04-12T00:17:07.754Z,93.30
2018-04-12T00:18:12.350Z,93.30
2018-04-12T00:19:16.966Z,93.33
2018-04-12T00:20:21.596Z,93.35
2018-04-12T00:21:27.201Z,93.37
2018-04-12T00:22:32.350Z,93.37
2018-04-12T00:23:37.000Z,93.37
2018-04-12T00:24:41.602Z,93.44
2018-04-12T00:25:46.218Z,93.49
2018-04-12T00:26:50.859Z,93.49
2018-04-12T00:27:55.580Z,93.49
2018-04-12T00:29:00.529Z,93.38
2018-04-12T00:30:05.307Z,93.38
2018-04-12T00:31:09.867Z,93.36
2018-04-12T00:32:14.432Z,93.43
2018-04-12T00:33:18.879Z,93.57
2018-04-12T00:34:23.359Z,93.60
2018-04-12T00:35:29.047Z,93.67
2018-04-12T00:36:33.587Z,93.73
2018-04-12T00:37:38.133Z,93.77
2018-04-12T00:38:42.688Z,93.81
2018-04-12T00:39:47.209Z,93.83
2018-04-12T00:40:51.751Z,93.73
2018-04-12T00:41:56.768Z,93.69
2018-04-12T00:43:01.426Z,93.72
2018-04-12T00:44:06.053Z,93.80
2018-04-12T00:45:10.698Z,93.89
2018-04-12T00:46:15.482Z,93.96
2018-04-12T00:47:20.161Z,94.00
2018-04-12T00:48:25.169Z,94.00
2018-04-12T00:49:29.820Z,94.05
2018-04-12T00:50:34.436Z,94.11
2018-04-12T00:51:39.251Z,94.25
2018-04-12T00:52:43.863Z,94.31
2018-04-12T00:54:06.378Z,94.38
2018-04-12T00:55:11.005Z,94.39
2018-04-12T00:56:15.582Z,94.33
2018-04-12T00:57:20.033Z,94.27
2018-04-12T00:58:24.588Z,94.21
2018-04-12T00:59:29.035Z,94.21
2018-04-12T01:00:33.830Z,94.17
2018-04-12T01:01:38.305Z,94.17
2018-04-12T01:02:42.768Z,94.12
2018-04-12T01:03:47.218Z,94.06
2018-04-12T01:04:51.710Z,93.95
2018-04-12T01:05:56.391Z,93.89
2018-04-12T01:07:01.580Z,93.90
2018-04-12T01:08:06.307Z,94.01
2018-04-12T01:09:11.066Z,94.15
2018-04-12T01:11:26.167Z,94.53
2018-04-12T01:12:31.192Z,94.52
2018-04-12T01:13:35.896Z,94.19
2018-04-12T01:14:40.543Z,94.14
2018-04-12T01:15:45.240Z,94.33
2018-04-12T01:16:49.863Z,94.44
2018-04-12T01:17:55.422Z,94.51
2018-04-12T01:19:00.572Z,94.53
2018-04-12T01:20:05.299Z,94.51
2018-04-12T01:21:09.976Z,94.53
2018-04-12T01:22:14.752Z,94.58
2018-04-12T01:23:19.529Z,94.63
2018-04-12T01:24:24.311Z,94.66
2018-04-12T01:25:29.415Z,94.71
2018-04-12T01:26:34.051Z,94.62
2018-04-12T01:27:38.741Z,94.54
2018-04-12T01:28:43.434Z,94.51
2018-04-12T01:29:48.369Z,94.54
2018-04-12T01:30:52.840Z,94.63
2018-04-12T01:31:57.819Z,94.66
2018-04-12T01:33:06.545Z,94.74
2018-04-12T01:34:11.001Z,94.80
2018-04-12T01:35:15.534Z,94.80
2018-04-12T01:36:20.061Z,94.79
2018-04-12T01:37:24.695Z,94.80
2018-04-12T01:38:29.597Z,94.88
2018-04-12T01:39:34.177Z,94.90
2018-04-12T01:40:38.727Z,94.87
2018-04-12T01:41:43.292Z,94.85
2018-04-12T01:42:47.864Z,94.88
2018-04-12T01:43:52.449Z,94.92
2018-04-12T01:44:57.386Z,94.93
2018-04-12T01:46:01.954Z,94.82
2018-04-12T01:47:06.488Z,94.83
2018-04-12T01:48:11.039Z,94.85
2018-04-12T01:49:15.552Z,94.90
2018-04-12T01:50:20.035Z,94.92
2018-04-12T01:51:24.929Z,94.97
2018-04-12T01:52:29.469Z,94.96
2018-04-12T01:53:33.936Z,94.99
2018-04-12T01:54:38.501Z,95.05
2018-04-12T01:55:43.034Z,95.00
2018-04-12T01:56:48.014Z,94.96
2018-04-12T01:57:52.911Z,94.92
2018-04-12T01:58:57.596Z,94.91
2018-04-12T02:00:02.207Z,94.97
2018-04-12T02:01:06.788Z,94.98
2018-04-12T02:02:11.388Z,95.04
2018-04-12T02:03:15.986Z,95.04
2018-04-12T02:04:21.048Z,95.04
2018-04-12T02:05:25.631Z,95.10
2018-04-12T02:06:30.144Z,95.19
2018-04-12T02:07:34.818Z,95.22
2018-04-12T02:08:39.434Z,95.20
2018-04-12T02:09:44.038Z,95.24
2018-04-12T02:10:49.187Z,95.28
2018-04-12T02:11:53.765Z,95.32
2018-04-12T02:12:58.362Z,95.30
2018-04-12T02:14:03.054Z,95.24
2018-04-12T02:15:07.821Z,95.23
2018-04-12T02:16:12.444Z,95.18
2018-04-12T02:17:17.449Z,95.08
2018-04-12T02:18:22.053Z,95.05
2018-04-12T02:19:26.663Z,95.04
2018-04-12T02:20:31.299Z,95.07
2018-04-12T02:21:35.919Z,95.15
2018-04-12T02:22:40.617Z,95.16
2018-04-12T02:23:45.555Z,95.22
2018-04-12T02:24:50.162Z,95.22
2018-04-12T02:25:54.782Z,95.25
2018-04-12T02:26:59.489Z,95.27
2018-04-12T02:28:04.122Z,95.30
2018-04-12T02:29:08.613Z,95.36
2018-04-12T02:30:13.559Z,95.43
2018-04-12T02:31:18.048Z,95.46
2018-04-12T02:32:22.568Z,95.48
2018-04-12T02:33:27.046Z,95.53
2018-04-12T02:34:31.535Z,95.57
2018-04-12T02:35:36.136Z,95.60
2018-04-12T02:36:41.163Z,95.61
2018-04-12T02:37:45.866Z,95.61
2018-04-12T02:38:50.503Z,95.62
2018-04-12T02:39:55.901Z,95.67
2018-04-12T02:41:00.529Z,95.66
2018-04-12T02:42:05.619Z,95.62
2018-04-12T02:43:10.651Z,95.61
2018-04-12T02:44:15.260Z,95.59
2018-04-12T02:45:19.863Z,95.57
2018-04-12T02:46:24.493Z,95.60
2018-04-12T02:47:29.113Z,95.62
2018-04-12T02:48:33.775Z,95.63
2018-04-12T02:49:38.747Z,95.67
2018-04-12T02:50:43.309Z,95.66
2018-04-12T02:51:47.961Z,95.67
2018-04-12T02:52:52.539Z,95.71
2018-04-12T02:53:57.003Z,95.71
2018-04-12T02:55:01.487Z,95.71
2018-04-12T02:56:06.207Z,95.76
2018-04-12T02:57:10.584Z,95.79
2018-04-12T02:58:14.965Z,95.77
2018-04-12T02:59:19.368Z,95.75
2018-04-12T03:00:23.789Z,95.76
2018-04-12T03:01:28.264Z,95.78
2018-04-12T03:02:33.041Z,95.78
2018-04-12T03:03:37.499Z,95.77
2018-04-12T03:04:41.957Z,95.76
2018-04-12T03:05:46.359Z,95.78
2018-04-12T03:06:50.743Z,95.79
2018-04-12T03:07:55.278Z,95.82
2018-04-12T03:09:00.408Z,95.82
2018-04-12T03:10:05.119Z,95.81
2018-04-12T03:11:09.730Z,95.81
2018-04-12T03:12:14.409Z,95.81
2018-04-12T03:13:18.880Z,95.81
2018-04-12T03:14:23.330Z,95.83
2018-04-12T03:15:28.181Z,95.80
2018-04-12T03:16:32.728Z,95.77
2018-04-12T03:17:37.218Z,95.77
2018-04-12T03:18:41.923Z,95.78
2018-04-12T03:19:46.599Z,95.79
2018-04-12T03:20:51.273Z,95.80
2018-04-12T03:21:56.342Z,95.84
2018-04-12T03:23:01.029Z,95.86
2018-04-12T03:24:05.720Z,95.86
2018-04-12T03:25:10.664Z,95.83
2018-04-12T03:26:15.295Z,95.80
2018-04-12T03:27:19.949Z,95.79
2018-04-12T03:28:25.070Z,95.79
2018-04-12T03:29:29.762Z,95.79
2018-04-12T03:30:34.416Z,95.76
2018-04-12T03:31:39.022Z,95.78
2018-04-12T03:32:43.651Z,95.77
2018-04-12T03:33:48.286Z,95.78
2018-04-12T03:34:53.376Z,95.81
2018-04-12T03:35:57.939Z,95.83
2018-04-12T03:37:02.861Z,95.86
2018-04-12T03:38:07.470Z,95.89
2018-04-12T03:39:11.994Z,95.97
2018-04-12T03:40:16.558Z,96.03
2018-04-12T03:41:21.583Z,96.06
2018-04-12T03:42:26.155Z,96.11
2018-04-12T03:43:30.725Z,96.10
2018-04-12T03:44:36.231Z,96.11
2018-04-12T03:45:40.768Z,96.12
2018-04-12T03:46:45.316Z,96.11
2018-04-12T03:47:50.400Z,96.10
2018-04-12T03:48:54.956Z,96.07
2018-04-12T03:50:00.273Z,96.08
2018-04-12T03:51:04.983Z,96.03
2018-04-12T03:52:09.637Z,95.99
2018-04-12T03:53:14.324Z,95.95
2018-04-12T03:54:19.290Z,95.94
2018-04-12T03:55:23.891Z,95.91
2018-04-12T03:56:28.620Z,95.90
2018-04-12T03:57:33.299Z,95.89
2018-04-12T03:58:37.934Z,95.88
2018-04-12T03:59:42.566Z,95.87
2018-04-12T04:00:47.602Z,95.85
2018-04-12T04:01:52.208Z,95.81
2018-04-12T04:02:56.846Z,95.75
2018-04-12T04:04:01.474Z,95.75
2018-04-12T04:05:05.998Z,95.74
2018-04-12T04:06:10.542Z,95.74
2018-04-12T04:07:15.612Z,95.71
2018-04-12T04:08:20.128Z,95.73
2018-04-12T04:09:24.667Z,95.73
2018-04-12T04:10:29.219Z,95.72
2018-04-12T04:11:33.850Z,95.73
2018-04-12T04:12:39.556Z,95.75
2018-04-12T04:13:44.578Z,95.75
2018-04-12T04:14:53.433Z,95.74
2018-04-12T04:16:03.186Z,95.72
2018-04-12T04:17:12.986Z,95.76
2018-04-12T04:18:22.858Z,95.75
2018-04-12T04:21:34.303Z,95.80
2018-04-12T04:22:38.770Z,95.91
2018-04-12T04:23:43.236Z,95.91
2018-04-12T04:24:47.851Z,95.89
2018-04-12T04:25:52.451Z,95.86
2018-04-12T04:26:57.055Z,95.79
2018-04-12T04:28:01.687Z,95.74
2018-04-12T04:29:06.306Z,95.78
2018-04-12T04:30:10.938Z,95.79
2018-04-12T04:31:15.629Z,95.78
2018-04-12T04:32:20.743Z,95.74
2018-04-12T04:33:25.280Z,95.74
2018-04-12T04:34:29.906Z,95.75
2018-04-12T04:35:34.547Z,95.73
2018-04-12T04:36:39.178Z,95.70
2018-04-12T04:37:44.726Z,95.66
2018-04-12T04:38:49.838Z,95.59
2018-04-12T04:39:54.433Z,95.54
2018-04-12T04:40:59.062Z,95.52
2018-04-12T04:42:04.513Z,95.51
2018-04-12T04:43:09.155Z,95.48
2018-04-12T04:44:13.838Z,95.45
2018-04-12T04:45:18.822Z,95.40
2018-04-12T04:46:23.482Z,95.44
2018-04-12T04:47:28.191Z,95.52
2018-04-12T04:48:32.852Z,95.50
2018-04-12T04:49:37.329Z,95.53
2018-04-12T04:50:41.932Z,95.55
2018-04-12T04:51:46.550Z,95.56
2018-04-12T04:52:51.139Z,95.55
2018-04-12T04:53:55.768Z,95.52
2018-04-12T04:55:00.439Z,95.47
2018-04-12T04:56:05.034Z,95.44
2018-04-12T04:57:10.125Z,95.47
2018-04-12T04:58:14.937Z,95.46
2018-04-12T04:59:20.395Z,95.44
2018-04-12T05:00:25.075Z,95.40
2018-04-12T05:01:29.778Z,95.50
2018-04-12T05:02:34.390Z,95.60
2018-04-12T05:03:38.965Z,95.65
2018-04-12T05:04:43.521Z,95.72
2018-04-12T05:05:48.101Z,95.78
2018-04-12T05:06:52.577Z,95.79
2018-04-12T05:07:57.183Z,95.77
2018-04-12T05:09:02.307Z,95.78
2018-04-12T05:10:07.062Z,95.74
2018-04-12T05:11:11.671Z,95.70
2018-04-12T05:12:16.442Z,95.63
2018-04-12T05:13:21.091Z,95.59
2018-04-12T05:14:25.710Z,95.59
2018-04-12T05:15:30.909Z,95.58
2018-04-12T05:16:35.963Z,95.58
2018-04-12T05:17:41.048Z,95.55
2018-04-12T05:18:45.679Z,95.52
2018-04-12T05:19:50.321Z,95.52
2018-04-12T05:20:56.100Z,95.53
2018-04-12T05:22:01.642Z,95.50
2018-04-12T05:23:07.022Z,95.47
2018-04-12T05:24:11.650Z,95.44
2018-04-12T05:25:16.353Z,95.44
2018-04-12T05:26:21.044Z,95.43
2018-04-12T05:27:25.716Z,95.45
2018-04-12T05:28:30.603Z,95.43
2018-04-12T05:29:39.329Z,95.42
2018-04-12T05:30:45.025Z,95.43
2018-04-12T05:31:50.593Z,95.43
2018-04-12T05:32:55.163Z,95.47
2018-04-12T05:34:04.014Z,95.46
2018-04-12T05:35:09.260Z,95.42
2018-04-12T05:36:13.785Z,95.37
2018-04-12T05:37:18.822Z,95.37
2018-04-12T05:38:23.522Z,95.33
2018-04-12T05:39:28.209Z,95.30
2018-04-12T05:40:32.870Z,95.22
2018-04-12T05:41:37.976Z,95.18
2018-04-12T05:42:42.670Z,95.22
2018-04-12T05:43:48.584Z,95.23
2018-04-12T05:44:53.749Z,95.20
2018-04-12T05:45:58.421Z,95.16
2018-04-12T05:47:03.252Z,95.15
2018-04-12T05:48:08.349Z,95.20
2018-04-12T05:49:12.969Z,95.30
2018-04-12T05:50:17.515Z,95.31
2018-04-12T05:51:22.220Z,95.32
2018-04-12T05:52:26.778Z,95.31
2018-04-12T05:53:31.418Z,95.31
2018-04-12T05:54:36.346Z,95.28
2018-04-12T05:55:40.915Z,95.21
2018-04-12T05:56:45.449Z,95.09
2018-04-12T05:57:50.017Z,94.95
2018-04-12T05:58:54.799Z,94.90
2018-04-12T05:59:59.986Z,94.88
2018-04-12T06:01:05.039Z,94.87
2018-04-12T06:02:10.169Z,94.90
2018-04-12T06:03:14.834Z,94.86
2018-04-12T06:04:19.548Z,94.85
2018-04-12T06:05:24.360Z,94.85
2018-04-12T06:06:29.021Z,94.77
2018-04-12T06:07:34.427Z,94.78
2018-04-12T06:08:39.101Z,94.71
2018-04-12T06:09:43.660Z,94.69
2018-04-12T06:10:48.659Z,94.64
2018-04-12T06:11:53.123Z,94.62
2018-04-12T06:12:57.660Z,94.61
2018-04-12T06:14:02.631Z,94.61
2018-04-12T06:15:07.241Z,94.60
2018-04-12T06:16:11.861Z,94.62
2018-04-12T06:17:16.481Z,94.54
2018-04-12T06:18:21.124Z,94.49
2018-04-12T06:19:26.129Z,94.39
2018-04-12T06:20:31.435Z,94.26
2018-04-12T06:21:36.555Z,94.17
2018-04-12T06:22:42.713Z,94.07
2018-04-12T06:23:47.401Z,93.97
2018-04-12T06:24:52.187Z,93.91
2018-04-12T06:25:56.950Z,93.82
2018-04-12T06:27:01.995Z,93.74
2018-04-12T06:28:06.672Z,93.62
2018-04-12T06:29:11.798Z,93.54
2018-04-12T06:30:16.755Z,93.47
2018-04-12T06:31:21.496Z,93.41
2018-04-12T06:32:26.172Z,93.35
2018-04-12T06:33:31.240Z,93.31
2018-04-12T06:34:35.929Z,93.27
2018-04-12T06:35:40.599Z,93.25
2018-04-12T06:36:45.287Z,93.18
2018-04-12T06:37:49.957Z,93.06
2018-04-12T06:38:54.658Z,92.95
2018-04-12T06:39:59.806Z,92.84
2018-04-12T06:41:04.488Z,92.75
2018-04-12T06:42:09.197Z,92.71
2018-04-12T06:43:14.248Z,92.67
2018-04-12T06:44:19.313Z,92.63
2018-04-12T06:45:24.393Z,92.55
2018-04-12T06:46:30.198Z,92.50
2018-04-12T06:47:35.238Z,92.45
2018-04-12T06:48:40.527Z,92.39
2018-04-12T06:49:45.563Z,92.31
2018-04-12T06:50:50.608Z,92.25
2018-04-12T06:51:55.965Z,92.26
2018-04-12T06:53:02.070Z,92.19
2018-04-12T06:54:06.971Z,92.16
2018-04-12T06:55:11.898Z,92.10
2018-04-12T06:56:16.775Z,92.05
2018-04-12T06:57:21.627Z,91.88
2018-04-12T06:58:26.549Z,91.72
2018-04-12T06:59:31.694Z,91.53
2018-04-12T07:00:36.549Z,91.34
2018-04-12T07:01:41.336Z,91.23
2018-04-12T07:02:46.244Z,90.99
2018-04-12T07:03:51.090Z,90.74
2018-04-12T07:04:55.859Z,90.52
2018-04-12T07:06:01.451Z,90.49
2018-04-12T07:07:06.516Z,90.45
2018-04-12T07:08:11.567Z,90.52
2018-04-12T07:09:16.615Z,90.34
2018-04-12T07:10:21.703Z,89.83
2018-04-12T07:11:26.692Z,89.25
2018-04-12T07:12:32.220Z,89.04
2018-04-12T07:13:37.368Z,88.91
2018-04-12T07:14:42.460Z,88.85
2018-04-12T07:15:47.344Z,88.73
2018-04-12T07:16:52.200Z,88.74
2018-04-12T07:17:59.214Z,88.70
2018-04-12T07:19:04.489Z,88.71
2018-04-12T07:20:09.561Z,88.72
2018-04-12T07:21:14.557Z,88.67
2018-04-12T07:22:19.643Z,88.47
2018-04-12T07:23:24.641Z,88.37
2018-04-12T07:24:29.754Z,87.92
2018-04-12T07:25:34.719Z,87.88
2018-04-12T07:26:39.680Z,87.85
2018-04-12T07:27:44.619Z,88.03
2018-04-12T07:28:49.565Z,88.37
2018-04-12T07:29:54.361Z,88.32
2018-04-12T07:30:59.467Z,88.18
2018-04-12T07:32:04.280Z,88.10
2018-04-12T07:33:09.304Z,88.20
2018-04-12T07:34:14.217Z,88.12
2018-04-12T07:35:18.902Z,88.05
2018-04-12T07:36:23.554Z,87.90
2018-04-12T07:37:28.702Z,87.80
2018-04-12T07:38:33.282Z,87.80
2018-04-12T07:39:38.018Z,87.73
2018-04-12T07:40:42.746Z,87.60
2018-04-12T07:41:47.336Z,87.63
2018-04-12T07:42:51.973Z,87.76
2018-04-12T07:43:56.958Z,87.86
2018-04-12T07:45:01.789Z,87.80
2018-04-12T07:46:06.674Z,87.59
2018-04-12T07:47:11.966Z,87.48
2018-04-12T07:48:17.317Z,87.16
2018-04-12T07:49:22.860Z,86.92
2018-04-12T07:50:27.921Z,86.74
2018-04-12T07:51:33.234Z,86.35
2018-04-12T07:52:37.828Z,86.00
2018-04-12T07:53:42.471Z,85.85
2018-04-12T07:54:46.987Z,85.73
2018-04-12T07:55:51.699Z,85.42
2018-04-12T07:56:56.867Z,85.16
2018-04-12T07:58:01.961Z,84.82
2018-04-12T07:59:06.572Z,84.32
2018-04-12T08:00:11.298Z,83.99
2018-04-12T08:01:15.907Z,83.73
2018-04-12T08:02:20.585Z,83.57
2018-04-12T08:03:25.537Z,83.37
2018-04-12T08:04:30.329Z,83.14
2018-04-12T08:05:34.987Z,83.01
2018-04-12T08:06:39.788Z,82.92
2018-04-12T08:07:44.939Z,82.78
2018-04-12T08:08:49.557Z,82.21
2018-04-12T08:09:54.732Z,81.79
2018-04-12T08:10:59.339Z,81.69
2018-04-12T08:12:04.001Z,81.49
2018-04-12T08:13:08.588Z,81.16
2018-04-12T08:14:13.198Z,80.98
2018-04-12T08:15:18.366Z,80.93
2018-04-12T08:16:23.537Z,80.81
2018-04-12T08:17:29.158Z,80.57
2018-04-12T08:18:33.657Z,80.00
2018-04-12T08:19:38.464Z,79.89
2018-04-12T08:20:43.100Z,79.66
2018-04-12T08:21:47.635Z,79.76
2018-04-12T08:22:52.670Z,79.71
2018-04-12T08:23:57.183Z,79.34
2018-04-12T08:25:01.728Z,79.15
2018-04-12T08:26:09.316Z,78.88
2018-04-12T08:27:13.802Z,78.77
2018-04-12T08:28:18.349Z,78.53
2018-04-12T08:29:23.261Z,78.33
2018-04-12T08:30:27.766Z,77.78
2018-04-12T08:31:32.293Z,77.36
2018-04-12T08:32:36.883Z,76.70
2018-04-12T08:33:41.518Z,76.46
2018-04-12T08:34:46.083Z,76.20
2018-04-12T08:35:51.126Z,75.71
2018-04-12T08:36:55.984Z,75.49
2018-04-12T08:38:01.764Z,75.04
2018-04-12T08:39:06.998Z,74.26
2018-04-12T08:40:11.512Z,73.43
2018-04-12T08:41:16.188Z,73.01
2018-04-12T08:42:21.241Z,72.85
2018-04-12T08:43:25.908Z,72.24
2018-04-12T08:44:30.537Z,72.08
2018-04-12T08:45:35.089Z,71.72
2018-04-12T08:46:39.623Z,71.36
2018-04-12T08:47:44.155Z,71.31
2018-04-12T08:48:49.199Z,70.98
2018-04-12T08:49:53.755Z,71.12
2018-04-12T08:50:58.291Z,71.11
2018-04-12T08:52:02.810Z,70.85
2018-04-12T08:53:07.543Z,70.66
2018-04-12T08:54:12.100Z,70.61
2018-04-12T08:55:16.958Z,70.60
2018-04-12T08:56:21.534Z,70.58
2018-04-12T08:57:26.163Z,70.50
2018-04-12T08:58:30.667Z,70.80
2018-04-12T08:59:35.179Z,70.49
2018-04-12T09:00:40.186Z,70.25
2018-04-12T09:01:44.582Z,70.12
2018-04-12T09:02:49.029Z,70.45
2018-04-12T09:03:53.525Z,70.23
2018-04-12T09:04:58.061Z,69.99
2018-04-12T09:06:02.606Z,70.10
2018-04-12T09:07:07.833Z,69.82
2018-04-12T09:08:12.530Z,70.00
2018-04-12T09:09:17.202Z,69.72
2018-04-12T09:10:21.840Z,69.79
2018-04-12T09:11:26.735Z,69.61
2018-04-12T09:12:31.388Z,69.56
2018-04-12T09:13:35.918Z,69.26
2018-04-12T09:14:40.460Z,68.99
2018-04-12T09:15:44.963Z,69.21
2018-04-12T09:16:49.571Z,69.03
2018-04-12T09:17:54.163Z,68.84
2018-04-12T09:18:59.109Z,68.77
2018-04-12T09:20:03.650Z,69.02
2018-04-12T09:21:08.344Z,69.23
2018-04-12T09:22:12.842Z,69.25
2018-04-12T09:23:17.406Z,69.24
2018-04-12T09:24:21.933Z,69.45
2018-04-12T09:25:26.930Z,69.61
2018-04-12T09:26:31.433Z,69.39
2018-04-12T09:27:35.963Z,69.43
2018-04-12T09:28:40.503Z,69.23
2018-04-12T09:29:45.030Z,69.43
2018-04-12T09:30:49.663Z,69.45
2018-04-12T09:31:54.772Z,69.22
2018-04-12T09:32:59.375Z,69.32
2018-04-12T09:34:04.141Z,69.34
2018-04-12T09:35:08.805Z,69.35
2018-04-12T09:36:13.389Z,69.12
2018-04-12T09:37:18.040Z,69.02
2018-04-12T09:38:22.967Z,69.03
2018-04-12T09:39:27.620Z,69.22
2018-04-12T09:40:32.364Z,69.18
2018-04-12T09:41:36.957Z,69.07
2018-04-12T09:42:41.682Z,69.11
2018-04-12T09:43:46.442Z,69.11
2018-04-12T09:44:51.584Z,69.26
2018-04-12T09:45:56.371Z,69.01
2018-04-12T09:47:00.927Z,68.77
2018-04-12T09:48:05.465Z,68.50
2018-04-12T09:49:10.075Z,68.05
2018-04-12T09:50:14.731Z,68.14
2018-04-12T09:51:19.961Z,67.82
2018-04-12T09:52:24.548Z,67.59
2018-04-12T09:53:29.282Z,67.44
2018-04-12T09:54:33.954Z,67.04
2018-04-12T09:55:38.495Z,66.89
2018-04-12T09:56:42.928Z,66.61
2018-04-12T09:57:47.718Z,65.98
2018-04-12T09:58:52.373Z,65.76
2018-04-12T09:59:56.756Z,65.44
2018-04-12T10:01:01.501Z,64.98
2018-04-12T10:02:06.059Z,64.73
2018-04-12T10:03:12.848Z,64.21
2018-04-12T10:04:18.857Z,63.24
2018-04-12T10:05:27.433Z,62.60
2018-04-12T10:06:36.466Z,62.39
2018-04-12T10:07:45.070Z,61.95
2018-04-12T10:08:53.752Z,61.44
2018-04-12T10:09:58.284Z,61.21
2018-04-12T10:11:03.555Z,59.98
2018-04-12T10:12:08.124Z,59.74
2018-04-12T10:13:12.700Z,59.30
2018-04-12T10:14:17.281Z,58.91
2018-04-12T10:15:21.915Z,58.11
2018-04-12T10:16:26.455Z,58.17
2018-04-12T10:17:31.500Z,57.81
2018-04-12T10:18:35.976Z,57.48
2018-04-12T10:19:40.460Z,57.36
2018-04-12T10:20:45.032Z,57.32
2018-04-12T10:21:49.507Z,56.66
2018-04-12T10:22:53.982Z,55.75
2018-04-12T10:23:58.536Z,56.00
2018-04-12T10:25:02.965Z,56.08
2018-04-12T10:26:08.224Z,55.79
2018-04-12T10:27:12.731Z,55.71
2018-04-12T10:28:17.257Z,55.44
2018-04-12T10:29:22.129Z,55.55
2018-04-12T10:30:26.673Z,55.49
2018-04-12T10:31:31.397Z,55.57
2018-04-12T10:32:36.067Z,55.47
2018-04-12T10:33:40.587Z,54.98
2018-04-12T10:34:45.138Z,55.35
2018-04-12T10:35:50.142Z,55.18
2018-04-12T10:36:54.710Z,54.66
2018-04-12T10:37:59.326Z,54.45
2018-04-12T10:39:03.989Z,54.19
2018-04-12T10:40:08.698Z,54.54
2018-04-12T10:41:13.418Z,54.80
2018-04-12T10:42:18.579Z,54.76
2018-04-12T10:43:23.247Z,54.71
2018-04-12T10:44:28.672Z,55.34
2018-04-12T10:45:33.488Z,55.35
2018-04-12T10:46:38.939Z,55.41
2018-04-12T10:47:44.565Z,55.39
2018-04-12T10:48:50.461Z,55.55
2018-04-12T10:49:55.138Z,55.25
2018-04-12T10:51:00.562Z,55.40
2018-04-12T10:52:05.317Z,55.49
2018-04-12T10:53:10.151Z,55.42
2018-04-12T10:54:14.954Z,55.47
2018-04-12T10:55:20.052Z,55.55
2018-04-12T10:56:24.816Z,55.57
2018-04-12T10:57:29.504Z,55.12
2018-04-12T10:58:39.687Z,54.76
2018-04-12T10:59:54.684Z,54.40
2018-04-12T11:01:03.580Z,54.35
2018-04-12T11:02:11.130Z,54.09
2018-04-12T11:03:24.757Z,53.93
2018-04-12T11:04:34.506Z,53.50
2018-04-12T11:05:43.179Z,53.66
2018-04-12T11:06:51.162Z,53.61
2018-04-12T11:08:01.848Z,54.00
2018-04-12T11:09:14.168Z,53.97
2018-04-12T11:10:19.437Z,53.97
2018-04-12T11:11:24.461Z,53.89
2018-04-12T11:12:29.114Z,54.14
2018-04-12T11:13:34.262Z,54.66
2018-04-12T11:14:38.867Z,54.10
2018-04-12T11:15:43.476Z,53.73
2018-04-12T11:16:48.610Z,53.13
2018-04-12T11:17:53.148Z,53.14
2018-04-12T11:18:57.700Z,53.01
2018-04-12T11:20:02.626Z,52.86
2018-04-12T11:21:07.233Z,52.70
2018-04-12T11:22:11.820Z,52.99
2018-04-12T11:23:16.472Z,53.20
2018-04-12T11:24:21.178Z,53.09
2018-04-12T11:25:25.965Z,53.22
2018-04-12T11:26:30.909Z,53.49
2018-04-12T11:27:35.418Z,53.29
2018-04-12T11:28:40.029Z,53.26
2018-04-12T11:29:44.685Z,53.32
2018-04-12T11:30:49.561Z,53.43
2018-04-12T11:31:54.304Z,53.39
2018-04-12T11:32:59.232Z,52.94
2018-04-12T11:34:03.784Z,52.69
2018-04-12T11:35:08.824Z,52.80
2018-04-12T11:36:14.261Z,52.64
2018-04-12T11:37:19.042Z,52.10
2018-04-12T11:38:23.713Z,52.13
2018-04-12T11:39:28.829Z,52.21
2018-04-12T11:40:33.434Z,52.17
2018-04-12T11:41:38.059Z,52.62
2018-04-12T11:42:42.715Z,52.74
2018-04-12T11:43:47.283Z,52.54
2018-04-12T11:44:51.853Z,52.40
2018-04-12T11:45:56.813Z,51.97
2018-04-12T11:47:01.316Z,51.47
2018-04-12T11:48:06.093Z,51.27
2018-04-12T11:49:10.744Z,50.98
2018-04-12T11:50:15.323Z,51.31
2018-04-12T11:51:19.971Z,52.09
2018-04-12T11:52:24.932Z,52.57
2018-04-12T11:53:29.416Z,52.17
2018-04-12T11:54:33.942Z,51.88
2018-04-12T11:55:38.574Z,51.72
2018-04-12T11:56:43.143Z,51.90
2018-04-12T11:57:47.764Z,51.71
2018-04-12T11:58:52.753Z,51.56
2018-04-12T11:59:57.416Z,51.18
2018-04-12T12:01:02.050Z,50.58
2018-04-12T12:02:06.763Z,50.35
2018-04-12T12:03:11.331Z,50.50
2018-04-12T12:04:15.842Z,50.06
2018-04-12T12:05:21.012Z,49.53
2018-04-12T12:06:25.566Z,49.75
2018-04-12T12:07:30.181Z,49.53
2018-04-12T12:08:34.759Z,49.85
2018-04-12T12:09:39.464Z,49.97
2018-04-12T12:10:44.120Z,49.95
2018-04-12T12:11:49.113Z,50.10
2018-04-12T12:12:53.804Z,50.13
2018-04-12T12:13:58.465Z,50.25
2018-04-12T12:15:03.156Z,50.08
2018-04-12T12:16:07.794Z,49.91
2018-04-12T12:17:12.574Z,49.40
2018-04-12T12:18:17.642Z,49.71
2018-04-12T12:19:22.293Z,49.76
2018-04-12T12:20:26.918Z,49.21
2018-04-12T12:21:31.590Z,48.98
2018-04-12T12:22:36.285Z,48.94
2018-04-12T12:23:41.224Z,48.49
2018-04-12T12:24:47.152Z,48.63
2018-04-12T12:25:51.774Z,49.02
2018-04-12T12:26:56.501Z,48.94
2018-04-12T12:28:01.104Z,48.44
2018-04-12T12:29:05.709Z,48.17
2018-04-12T12:30:10.402Z,48.35
2018-04-12T12:31:15.487Z,48.45
2018-04-12T12:32:20.195Z,48.67
2018-04-12T12:33:24.895Z,48.30
2018-04-12T12:34:29.477Z,48.09
2018-04-12T12:35:34.110Z,47.85
2018-04-12T12:36:39.759Z,47.83
2018-04-12T12:37:44.805Z,47.86
2018-04-12T12:38:49.438Z,48.03
2018-04-12T12:39:54.085Z,48.32
2018-04-12T12:40:58.748Z,48.32
2018-04-12T12:42:03.403Z,47.96
2018-04-12T12:43:08.024Z,48.06
2018-04-12T12:44:13.271Z,48.48
2018-04-12T12:45:17.871Z,48.51
2018-04-12T12:46:22.531Z,48.57
2018-04-12T12:47:27.045Z,48.76
2018-04-12T12:48:32.185Z,48.92
2018-04-12T12:49:36.949Z,49.01
2018-04-12T12:50:42.141Z,49.06
2018-04-12T12:51:46.807Z,49.26
2018-04-12T12:52:51.436Z,48.93
2018-04-12T12:53:56.121Z,48.74
2018-04-12T12:55:00.966Z,49.04
2018-04-12T12:56:05.874Z,48.78
2018-04-12T12:57:11.137Z,48.57
2018-04-12T12:58:15.926Z,48.44
2018-04-12T12:59:20.565Z,48.12
2018-04-12T13:00:25.484Z,47.60
2018-04-12T13:01:32.389Z,47.19
2018-04-12T13:02:41.572Z,47.12
2018-04-12T13:03:46.771Z,46.74
2018-04-12T13:04:51.888Z,46.87
2018-04-12T13:05:57.465Z,46.95
2018-04-12T13:07:02.243Z,47.59
2018-04-12T13:08:07.527Z,47.97
2018-04-12T13:09:12.565Z,48.09
2018-04-12T13:10:18.683Z,47.96
2018-04-12T13:11:25.373Z,47.62
2018-04-12T13:12:30.604Z,47.47
2018-04-12T13:13:35.358Z,46.98
2018-04-12T13:14:40.387Z,46.81
2018-04-12T13:15:45.006Z,46.57
2018-04-12T13:16:49.603Z,46.36
2018-04-12T13:17:54.237Z,46.51
2018-04-12T13:18:59.836Z,46.29
2018-04-12T13:20:07.850Z,46.08
2018-04-12T13:21:12.519Z,46.19
2018-04-12T13:22:17.095Z,46.57
2018-04-12T13:23:22.082Z,46.74
2018-04-12T13:24:28.156Z,46.42
2018-04-12T13:25:32.805Z,46.67
2018-04-12T13:26:37.456Z,46.94
2018-04-12T13:27:42.559Z,47.44
2018-04-12T13:28:47.636Z,47.78
2018-04-12T13:29:52.193Z,47.79
2018-04-12T13:30:56.492Z,47.88
2018-04-12T13:32:01.088Z,47.88
2018-04-12T13:33:05.857Z,47.71
2018-04-12T13:34:11.856Z,47.51
2018-04-12T13:35:22.329Z,47.40
2018-04-12T13:36:28.407Z,46.90
2018-04-12T13:37:33.197Z,46.96
2018-04-12T13:38:37.945Z,46.98
2018-04-12T13:39:43.299Z,46.77
2018-04-12T13:40:49.064Z,46.50
2018-04-12T13:41:54.517Z,46.40
2018-04-12T13:42:59.411Z,46.47
2018-04-12T13:44:04.269Z,46.47
2018-04-12T13:45:09.026Z,46.21
2018-04-12T13:46:13.557Z,46.20
2018-04-12T13:47:19.338Z,46.40
2018-04-12T13:48:23.896Z,46.26
2018-04-12T13:49:28.455Z,46.28
2018-04-12T13:50:33.036Z,46.17
2018-04-12T13:51:38.026Z,46.21
2018-04-12T13:52:46.632Z,46.20
2018-04-12T13:53:52.442Z,46.13
2018-04-12T13:54:57.314Z,46.21
2018-04-12T13:56:02.058Z,46.14
2018-04-12T13:57:07.493Z,46.33
2018-04-12T13:58:13.270Z,46.73
2018-04-12T13:59:17.916Z,47.05
2018-04-12T14:00:24.342Z,47.12